Arlington, CA

10:09 PM PDT on September 23, 2014 (GMT -0700)
Chino | Change Station
CLOSE
Current Station
Airport
Location: Chino,
Elevation: 650 ft
Nearby Weather Stations

Elev 650 ft 33.98 °N, 117.64 °W | Updated 16 minutes ago

Clear
Clear
72 °F
Feels Like 72 °F
N
0
Wind Variable Wind from North

Today
High -- | Low -- °F
--% Chance of Precip.
Yesterday
High -- | Low -- °F
Precip. -- in
6:38 AM 6:45 PM
Waning Crescent, 0% visible
Pressure 29.91 in
Visibility 10.0 miles
Clouds Clear
Dew Point 56 °F
Humidity 57%
Rainfall 0.00 in
Snow Depth 0 in , 2 in , 0 in
UV 0 out of 12
Pollen 5.70 out of 12
Ozone Good
PM2.5 Moderate
Flu Activity Not available.
METAR KCNO 240453Z AUTO 00000KT 10SM CLR 22/13 A2993 RMK AO2 SLP129 T02220133

More Conditions Fewer Conditions

Pressure 29.91 in
Visibility 10.0 miles
Clouds Clear
Dew Point 56 °F
Humidity 57%
Rainfall 0.00 in
Snow Depth 0 in , 2 in , 0 in
UV 0 out of 12
Pollen 5.70 out of 12
Ozone Good
PM2.5 Moderate
Flu Activity Not available.
METAR KCNO 240453Z AUTO 00000KT 10SM CLR 22/13 A2993 RMK AO2 SLP129 T02220133

More Conditions Fewer Conditions

10-Day Weather Forecast

Almanac

Astronomy

Sep. 23, 2014 Rise Set
Actual Time 6:38 AM PDT 6:45 PM PDT
Civil Twilight 6:13 AM PDT 7:09 PM PDT
Nautical Twilight 5:44 AM PDT 7:38 PM PDT
Astronomical Twilight 5:15 AM PDT 8:08 PM PDT
Moon 6:07 AM PDT (9/23) 6:27 PM PDT (9/23)
Length of Visible Light 12h 56m
Length of Day
12h 06m
Tomorrow will be 2m 6s shorter.
Waning Crescent, 0% of the Moon is Illuminated
Sep 24
Waning Crescent
Sep 24
New
Oct 1
First Quarter
Oct 8
Full
Oct 15
Last Quarter

Yesterday's Extremes

State Highs State Lows

Community

WunderPhotos

Upload Photos

1,755,891 photos uploaded!

WunderBlogs® & News

Nearby

Air Quality

  Air Quality AQ Index Pollutant
Yesterday Good
PM10
Yesterday Moderate
OZONE
Current Moderate
PM2.5
Current Good
OZONE
Wednesday Good
PM10
Wednesday Moderate
OZONE
Wednesday Good
CO
Wednesday Good
NO2

Snow Depth

Station Depth Elevation
Burnside Lake 0 in 8139 ft
CSS Lab 2 in 6900 ft
Summit Meadow 0 in 9122 ft
Tahoe City Cross 0 in 6750 ft
Spratt Creek 0 in 6200 ft

Earthquake Activity

City Distance Mag. Time & Date
Running Springs, California 35 miles 2.5 7:26 AM PDT
2014-09-22
Borrego Springs, California 78 miles 2.6 7:34 AM PDT
2014-09-21
Minimum magnitude displayed is 2.5.

Coastal Water Temperatures

Place Temperature
No Stations Reporting

Nearby Weather Stations